Alexandra — WDD5677 — position and weather

sailwx.info

Track history (hours):
 
Tides and Currents Weather Stations Pressure Air Temp Water Temp Dewpoint Dewpoint Depression Visibility Wind Speed Wind Dir Waves Ship Positions

Alexandra

Owner: Weeks Marine, Inc., Cranford, NJ. More information available from US FCC via Universal Licensing System and Coast Guard Vessel Documentation Center.

Last reported at 2017-Oct-21 15:22 UTC. Time now 2017-Oct-22 17:16 UTC.
Position N 25°28' W 079°57'.

Length 37 m; draft 5 m.

Type: Tug. MMSI: 367161950.

Date/timePositionNaut miles runAvg speedWind from/ knotsBaromVisibWave heightAir tempDewpointWater temp
2017-Oct-21 15:22N 25°28' W 079°57'2 5.3
2017-Oct-21 14:59N 25°30' W 079°58'5 4.9
2017-Oct-21 14:01N 25°34' W 079°60'3 5.4
2017-Oct-21 13:31N 25°37' W 080°01'3 5.9
2017-Oct-21 13:01N 25°39' W 080°02'4 7.2
2017-Oct-21 12:30N 25°43' W 080°02'3 6.7
2017-Oct-21 12:00N 25°46' W 080°03'3 6.4
2017-Oct-21 11:30N 25°50' W 080°03'3 6.2
2017-Oct-21 11:01N 25°53' W 080°03'3 6.8
2017-Oct-21 10:30N 25°56' W 080°04'3 5.3
2017-Oct-21 10:00N 25°59' W 080°04'2 4.9
2017-Oct-21 09:30N 26°01' W 080°03'3 7.0
2017-Oct-21 09:00N 26°05' W 080°03'4 8.8
2017-Oct-21 08:30N 26°09' W 080°03'5 9.1
2017-Oct-21 08:00N 26°13' W 080°02'4 7.9
2017-Oct-21 07:30N 26°17' W 080°02'4 7.3
2017-Oct-21 07:00N 26°21' W 080°01'4 7.3
2017-Oct-21 06:25N 26°25' W 080°01'29 6.6
2017-Oct-21 02:03N 26°54' W 079°58'0 6.2
2017-Oct-21 02:01N 26°54' W 079°58'3 6.7
2017-Oct-21 01:31N 26°58' W 079°58'4 7.7
2017-Oct-21 01:00N 27°02' W 079°58'  
2017-Oct-16 05:40N 38°52' W 075°04'2 7.9
2017-Oct-16 05:27N 38°54' W 075°05'3 6.6
2017-Oct-16 05:00N 38°56' W 075°07'4 8.2
2017-Oct-16 04:30N 39°00' W 075°09'4 8.7
2017-Oct-16 04:00N 39°04' W 075°11'5 9.2
2017-Oct-16 03:31N 39°08' W 075°14'5 9.0
2017-Oct-16 03:01N 39°12' W 075°17'4 8.0
2017-Oct-16 02:31N 39°15' W 075°20'4 8.4
2017-Oct-16 02:01N 39°18' W 075°23'4 8.0
2017-Oct-16 01:30N 39°21' W 075°27'4 7.2
2017-Oct-16 01:01N 39°24' W 075°30'3 6.7
2017-Oct-16 00:30N 39°27' W 075°33'3 6.2
2017-Oct-16 00:00N 39°30' W 075°34'3 5.9
2017-Oct-15 23:30N 39°32' W 075°33'3 5.9
2017-Oct-15 23:00N 39°35' W 075°34'3 5.5
2017-Oct-15 22:31N 39°38' W 075°34'3 6.7
2017-Oct-15 22:00N 39°41' W 075°31'3 6.8
2017-Oct-15 21:30N 39°44' W 075°30'3 6.7
2017-Oct-15 21:00N 39°47' W 075°28'4 7.5
2017-Oct-15 20:30N 39°49' W 075°24'3 6.7
2017-Oct-15 20:00N 39°51' W 075°20'0 0.5
2017-Oct-15 19:30N 39°51' W 075°20'0 0.0
2017-Oct-15 19:01N 39°51' W 075°20'0 0.0
2017-Oct-15 18:30N 39°51' W 075°20'0 0.0
2017-Oct-15 18:00N 39°51' W 075°20'0 0.0
2017-Oct-15 17:30N 39°51' W 075°20'0 0.0
2017-Oct-15 17:00N 39°51' W 075°20'0 0.0
2017-Oct-15 16:31N 39°51' W 075°20'0 0.0
2017-Oct-15 16:00N 39°51' W 075°20'0 0.0
2017-Oct-15 15:30N 39°51' W 075°20'0 0.0
2017-Oct-15 15:00N 39°51' W 075°20'0 0.0
2017-Oct-15 14:00N 39°51' W 075°20'0 0.0
2017-Oct-15 13:30N 39°51' W 075°20'0 0.0
2017-Oct-15 13:00N 39°51' W 075°20'0 0.0
2017-Oct-15 12:30N 39°51' W 075°20'0 0.0
2017-Oct-15 12:00N 39°51' W 075°20'0 0.0
2017-Oct-15 11:30N 39°51' W 075°20'0 0.0
2017-Oct-15 11:00N 39°51' W 075°20'0 0.0
2017-Oct-15 10:30N 39°51' W 075°20'0 0.0
2017-Oct-15 10:00N 39°51' W 075°20'0 0.0
2017-Oct-15 09:30N 39°51' W 075°20'0 0.0
2017-Oct-15 09:00N 39°51' W 075°20'0 0.0
2017-Oct-15 08:30N 39°51' W 075°20'0 0.0
2017-Oct-15 08:00N 39°51' W 075°20'0 0.0
2017-Oct-15 07:31N 39°51' W 075°20'0 0.0
2017-Oct-15 07:00N 39°51' W 075°20'0 0.0
2017-Oct-15 06:30N 39°51' W 075°20'0 0.0
2017-Oct-15 06:00N 39°51' W 075°20'0 0.0
2017-Oct-15 05:30N 39°51' W 075°20'0 0.0
2017-Oct-15 05:00N 39°51' W 075°20'0 0.0
2017-Oct-15 04:30N 39°51' W 075°20'0 0.0
2017-Oct-15 04:00N 39°51' W 075°20'0 0.0
2017-Oct-15 03:30N 39°51' W 075°20'0 0.0
2017-Oct-15 03:00N 39°51' W 075°20'0 0.0
2017-Oct-15 02:30N 39°51' W 075°20'0 0.0
2017-Oct-15 02:00N 39°51' W 075°20'0 0.0
2017-Oct-15 01:30N 39°51' W 075°20'0 0.0
2017-Oct-15 01:00N 39°51' W 075°20'0 0.0
2017-Oct-15 00:30N 39°51' W 075°20'0 0.0
2017-Oct-15 00:00N 39°51' W 075°20'0 0.0
2017-Oct-14 23:30N 39°51' W 075°20'0 0.0
2017-Oct-14 23:00N 39°51' W 075°20'0 0.0
2017-Oct-14 22:30N 39°51' W 075°20'0 0.0
2017-Oct-14 22:00N 39°51' W 075°20'0 0.0
2017-Oct-14 21:30N 39°51' W 075°20'0 0.0
2017-Oct-14 21:00N 39°51' W 075°20'0 0.0
2017-Oct-14 20:30N 39°51' W 075°20'0 0.0
2017-Oct-14 20:00N 39°51' W 075°20'0 0.0
2017-Oct-14 19:30N 39°51' W 075°20'0 0.0
2017-Oct-14 19:00N 39°51' W 075°20'0 0.0
2017-Oct-14 18:30N 39°51' W 075°20'0 0.0
2017-Oct-14 18:00N 39°51' W 075°20'0 0.0
2017-Oct-14 17:30N 39°51' W 075°20'0 0.0
2017-Oct-14 17:00N 39°51' W 075°20'0 0.0
2017-Oct-14 16:30N 39°51' W 075°20'0 0.0
2017-Oct-14 16:00N 39°51' W 075°20'0 0.0
2017-Oct-14 15:30N 39°51' W 075°20'0 0.0
2017-Oct-14 15:00N 39°51' W 075°20'0 0.0
2017-Oct-14 14:30N 39°51' W 075°20'0 0.0
2017-Oct-14 14:00N 39°51' W 075°20'0 0.0
2017-Oct-14 13:30N 39°51' W 075°20'0 0.0
2017-Oct-14 13:00N 39°51' W 075°20'0 0.0
2017-Oct-14 12:31N 39°51' W 075°20'0 0.0
2017-Oct-14 12:00N 39°51' W 075°20'0 0.0
2017-Oct-14 11:31N 39°51' W 075°20'0 0.0
2017-Oct-14 11:00N 39°51' W 075°20'0 0.0
2017-Oct-14 10:30N 39°51' W 075°20'0 0.0
2017-Oct-14 10:01N 39°51' W 075°20'0 0.0
2017-Oct-14 09:31N 39°51' W 075°20'0 0.0
2017-Oct-14 09:01N 39°51' W 075°20'0 0.0
2017-Oct-14 08:31N 39°51' W 075°20'0 0.0
2017-Oct-14 08:01N 39°51' W 075°20'0 0.0
2017-Oct-14 07:30N 39°51' W 075°20'0 0.0
2017-Oct-14 07:00N 39°51' W 075°20'0 0.0
2017-Oct-14 06:31N 39°51' W 075°20'0 0.0
2017-Oct-14 06:00N 39°51' W 075°20'0 0.0
2017-Oct-14 05:31N 39°51' W 075°20'0 0.0
2017-Oct-14 05:01N 39°51' W 075°20'0 0.0
2017-Oct-14 04:31N 39°51' W 075°20'0 0.0
2017-Oct-14 04:01N 39°51' W 075°20'0 0.0
2017-Oct-14 03:30N 39°51' W 075°20'0 0.0
2017-Oct-14 02:31N 39°51' W 075°20'0 0.0
2017-Oct-14 02:30N 39°51' W 075°20'0 0.0
2017-Oct-14 02:01N 39°51' W 075°20'0 0.0
2017-Oct-14 01:28N 39°51' W 075°20'0 0.0
2017-Oct-14 01:01N 39°51' W 075°20'0 0.0
2017-Oct-14 00:30N 39°51' W 075°20'0 0.0
2017-Oct-14 00:01N 39°51' W 075°20'0 0.0
2017-Oct-13 23:30N 39°51' W 075°20'0 0.0
2017-Oct-13 23:00N 39°51' W 075°20'0 0.0
2017-Oct-13 22:31N 39°51' W 075°20'0 0.0
2017-Oct-13 22:01N 39°51' W 075°20'0 0.0
2017-Oct-13 21:31N 39°51' W 075°20'0 0.0
2017-Oct-13 21:01N 39°51' W 075°20'0 0.0
2017-Oct-13 20:30N 39°51' W 075°20'0 0.0
2017-Oct-13 20:01N 39°51' W 075°20'0 0.0
2017-Oct-13 19:31N 39°51' W 075°20'0 0.0
2017-Oct-13 19:00N 39°51' W 075°20'0 0.0
2017-Oct-13 18:30N 39°51' W 075°20'0 0.0
2017-Oct-13 18:00N 39°51' W 075°20'0 0.0
2017-Oct-13 17:30N 39°51' W 075°20'0 0.0
2017-Oct-13 17:01N 39°51' W 075°20'0 0.0
2017-Oct-13 16:31N 39°51' W 075°20'0 0.0
2017-Oct-13 16:01N 39°51' W 075°20'0 0.0
2017-Oct-13 15:30N 39°51' W 075°20'0 0.0
2017-Oct-13 15:00N 39°51' W 075°20'0 0.0
2017-Oct-13 14:31N 39°51' W 075°20'0 0.0
2017-Oct-13 14:01N 39°51' W 075°20'0 0.0
2017-Oct-13 13:31N 39°51' W 075°20'0 0.0
2017-Oct-13 13:01N 39°51' W 075°20'0 0.0
2017-Oct-13 12:31N 39°51' W 075°20'0 0.0
2017-Oct-13 12:01N 39°51' W 075°20'0 0.0
2017-Oct-13 11:30N 39°51' W 075°20'0 0.0
2017-Oct-13 11:01N 39°51' W 075°20'0 0.0
2017-Oct-13 10:31N 39°51' W 075°20'0 0.0
2017-Oct-13 10:00N 39°51' W 075°20'0 0.0
2017-Oct-13 09:31N 39°51' W 075°20'0 0.0
2017-Oct-13 09:00N 39°51' W 075°20'0 0.0
2017-Oct-13 08:31N 39°51' W 075°20'0 0.0
2017-Oct-13 08:01N 39°51' W 075°20'0 0.0
2017-Oct-13 07:31N 39°51' W 075°20'0 0.0
2017-Oct-13 07:00N 39°51' W 075°20'0 0.0
2017-Oct-13 06:31N 39°51' W 075°20'0 0.0
2017-Oct-13 06:01N 39°51' W 075°20'0 0.0
2017-Oct-13 05:30N 39°51' W 075°20'0 0.0
2017-Oct-13 05:01N 39°51' W 075°20'0 0.0
2017-Oct-13 04:30N 39°51' W 075°20'0 0.0
2017-Oct-13 04:01N 39°51' W 075°20'0 0.0
2017-Oct-13 03:31N 39°51' W 075°20'0 0.0
2017-Oct-13 03:01N 39°51' W 075°20'0 0.0
2017-Oct-13 02:31N 39°51' W 075°20'0 0.0
2017-Oct-13 02:00N 39°51' W 075°20'0 0.0
2017-Oct-13 01:31N 39°51' W 075°20'0 0.0
2017-Oct-13 01:01N 39°51' W 075°20'0 0.0
2017-Oct-13 00:30N 39°51' W 075°20'0 0.0
2017-Oct-13 00:00N 39°51' W 075°20'0 0.0
2017-Oct-12 23:30N 39°51' W 075°20'0 0.0
2017-Oct-12 23:01N 39°51' W 075°20'0 0.0
2017-Oct-12 22:30N 39°51' W 075°20'0 0.0
2017-Oct-12 22:01N 39°51' W 075°20'0 0.0
2017-Oct-12 21:31N 39°51' W 075°20'0 0.0
2017-Oct-12 21:01N 39°51' W 075°20'0 0.0
2017-Oct-12 20:30N 39°51' W 075°20'0 0.0
2017-Oct-12 20:01N 39°51' W 075°20'0 0.0
2017-Oct-12 19:31N 39°51' W 075°20'0 0.0
2017-Oct-12 19:00N 39°51' W 075°20'0 0.0
2017-Oct-12 18:31N 39°51' W 075°20'0 0.0
2017-Oct-12 18:01N 39°51' W 075°20'0 0.0
2017-Oct-12 17:30N 39°51' W 075°20'0 0.0
2017-Oct-12 17:00N 39°51' W 075°20'0 0.0
2017-Oct-12 16:30N 39°51' W 075°20'0 0.0
2017-Oct-12 16:01N 39°51' W 075°20'0 0.0
2017-Oct-12 15:31N 39°51' W 075°20'0 0.0
2017-Oct-12 15:00N 39°51' W 075°20'0 0.0
2017-Oct-12 14:31N 39°51' W 075°20'0 0.0
2017-Oct-12 14:00N 39°51' W 075°20'0 0.0
2017-Oct-12 13:30N 39°51' W 075°20'0 0.0
2017-Oct-12 13:01N 39°51' W 075°20'0 0.0
2017-Oct-12 12:31N 39°51' W 075°20'0 0.0
2017-Oct-12 12:00N 39°51' W 075°20'0 0.0
2017-Oct-12 11:31N 39°51' W 075°20'0 0.0
2017-Oct-12 11:01N 39°51' W 075°20'0 0.0
2017-Oct-12 10:30N 39°51' W 075°20'0 0.0
2017-Oct-12 10:01N 39°51' W 075°20'0 0.0
2017-Oct-12 09:30N 39°51' W 075°20'0 0.0
2017-Oct-12 09:01N 39°51' W 075°20'0 0.0
2017-Oct-12 08:31N 39°51' W 075°20'0 0.0
2017-Oct-12 08:01N 39°51' W 075°20'0 0.0
2017-Oct-12 07:30N 39°51' W 075°20'0 0.0
2017-Oct-12 07:00N 39°51' W 075°20'0 0.0
2017-Oct-12 06:31N 39°51' W 075°20'0 0.0
2017-Oct-12 06:01N 39°51' W 075°20'0 0.0
2017-Oct-12 05:30N 39°51' W 075°20'0 0.0
2017-Oct-12 05:00N 39°51' W 075°20'0 0.0
2017-Oct-12 04:30N 39°51' W 075°20'0 0.0
2017-Oct-12 04:01N 39°51' W 075°20'0 0.0
2017-Oct-12 03:31N 39°51' W 075°20'0 0.0
2017-Oct-12 03:00N 39°51' W 075°20'0 0.0
2017-Oct-12 02:31N 39°51' W 075°20'0 0.0
2017-Oct-12 02:00N 39°51' W 075°20'0 0.0
2017-Oct-12 01:30N 39°51' W 075°20'0 0.0
2017-Oct-12 01:00N 39°51' W 075°20'0 0.0
2017-Oct-12 00:30N 39°51' W 075°20'0 0.0
2017-Oct-12 00:01N 39°51' W 075°20'0 0.0
2017-Oct-11 23:31N 39°51' W 075°20'0 0.0
2017-Oct-11 23:00N 39°51' W 075°20'0 0.0
2017-Oct-11 22:30N 39°51' W 075°20'0 0.0
2017-Oct-11 22:00N 39°51' W 075°20'0 0.0
2017-Oct-11 21:30N 39°51' W 075°20'0 0.0
2017-Oct-11 21:00N 39°51' W 075°20'0 0.0
2017-Oct-11 20:31N 39°51' W 075°20'0 0.0
2017-Oct-11 20:01N 39°51' W 075°20'0 0.0
2017-Oct-11 19:30N 39°51' W 075°20'0 0.0
2017-Oct-11 19:01N 39°51' W 075°20'2 3.5
2017-Oct-11 18:31N 39°50' W 075°22'0 0.7
2017-Oct-11 18:01N 39°50' W 075°22'0 0.0
2017-Oct-11 17:30N 39°50' W 075°22'0 0.0
2017-Oct-11 17:00N 39°50' W 075°22'  
Track history (hours):
 
Tides and Currents Weather Stations Pressure Air Temp Water Temp Dewpoint Dewpoint Depression Visibility Wind Speed Wind Dir Waves Ship Positions

Alexandra

Owner: Weeks Marine, Inc., Cranford, NJ. More information available from US FCC via Universal Licensing System and Coast Guard Vessel Documentation Center.

Last reported at 2017-Oct-21 15:22 UTC. Time now 2017-Oct-22 17:16 UTC.
Position N 25°28' W 079°57'.

Length 37 m; draft 5 m.

Type: Tug. MMSI: 367161950.

Date/timePositionNaut miles runAvg speedWind from/ knotsBaromVisibWave heightAir tempDewpointWater temp
2017-Oct-21 15:22N 25°28' W 079°57'2 5.3
2017-Oct-21 14:59N 25°30' W 079°58'5 4.9
2017-Oct-21 14:01N 25°34' W 079°60'3 5.4
2017-Oct-21 13:31N 25°37' W 080°01'3 5.9
2017-Oct-21 13:01N 25°39' W 080°02'4 7.2
2017-Oct-21 12:30N 25°43' W 080°02'3 6.7
2017-Oct-21 12:00N 25°46' W 080°03'3 6.4
2017-Oct-21 11:30N 25°50' W 080°03'3 6.2
2017-Oct-21 11:01N 25°53' W 080°03'3 6.8
2017-Oct-21 10:30N 25°56' W 080°04'3 5.3
2017-Oct-21 10:00N 25°59' W 080°04'2 4.9
2017-Oct-21 09:30N 26°01' W 080°03'3 7.0
2017-Oct-21 09:00N 26°05' W 080°03'4 8.8
2017-Oct-21 08:30N 26°09' W 080°03'5 9.1
2017-Oct-21 08:00N 26°13' W 080°02'4 7.9
2017-Oct-21 07:30N 26°17' W 080°02'4 7.3
2017-Oct-21 07:00N 26°21' W 080°01'4 7.3
2017-Oct-21 06:25N 26°25' W 080°01'29 6.6
2017-Oct-21 02:03N 26°54' W 079°58'0 6.2
2017-Oct-21 02:01N 26°54' W 079°58'3 6.7
2017-Oct-21 01:31N 26°58' W 079°58'4 7.7
2017-Oct-21 01:00N 27°02' W 079°58'  
2017-Oct-16 05:40N 38°52' W 075°04'2 7.9
2017-Oct-16 05:27N 38°54' W 075°05'3 6.6
2017-Oct-16 05:00N 38°56' W 075°07'4 8.2
2017-Oct-16 04:30N 39°00' W 075°09'4 8.7
2017-Oct-16 04:00N 39°04' W 075°11'5 9.2
2017-Oct-16 03:31N 39°08' W 075°14'5 9.0
2017-Oct-16 03:01N 39°12' W 075°17'4 8.0
2017-Oct-16 02:31N 39°15' W 075°20'4 8.4
2017-Oct-16 02:01N 39°18' W 075°23'4 8.0
2017-Oct-16 01:30N 39°21' W 075°27'4 7.2
2017-Oct-16 01:01N 39°24' W 075°30'3 6.7
2017-Oct-16 00:30N 39°27' W 075°33'3 6.2
2017-Oct-16 00:00N 39°30' W 075°34'3 5.9
2017-Oct-15 23:30N 39°32' W 075°33'3 5.9
2017-Oct-15 23:00N 39°35' W 075°34'3 5.5
2017-Oct-15 22:31N 39°38' W 075°34'3 6.7
2017-Oct-15 22:00N 39°41' W 075°31'3 6.8
2017-Oct-15 21:30N 39°44' W 075°30'3 6.7
2017-Oct-15 21:00N 39°47' W 075°28'4 7.5
2017-Oct-15 20:30N 39°49' W 075°24'3 6.7
2017-Oct-15 20:00N 39°51' W 075°20'0 0.5
2017-Oct-15 19:30N 39°51' W 075°20'0 0.0
2017-Oct-15 19:01N 39°51' W 075°20'0 0.0
2017-Oct-15 18:30N 39°51' W 075°20'0 0.0
2017-Oct-15 18:00N 39°51' W 075°20'0 0.0
2017-Oct-15 17:30N 39°51' W 075°20'0 0.0
2017-Oct-15 17:00N 39°51' W 075°20'0 0.0
2017-Oct-15 16:31N 39°51' W 075°20'0 0.0
2017-Oct-15 16:00N 39°51' W 075°20'0 0.0
2017-Oct-15 15:30N 39°51' W 075°20'0 0.0
2017-Oct-15 15:00N 39°51' W 075°20'0 0.0
2017-Oct-15 14:00N 39°51' W 075°20'0 0.0
2017-Oct-15 13:30N 39°51' W 075°20'0 0.0
2017-Oct-15 13:00N 39°51' W 075°20'0 0.0
2017-Oct-15 12:30N 39°51' W 075°20'0 0.0
2017-Oct-15 12:00N 39°51' W 075°20'0 0.0
2017-Oct-15 11:30N 39°51' W 075°20'0 0.0
2017-Oct-15 11:00N 39°51' W 075°20'0 0.0
2017-Oct-15 10:30N 39°51' W 075°20'0 0.0
2017-Oct-15 10:00N 39°51' W 075°20'0 0.0
2017-Oct-15 09:30N 39°51' W 075°20'0 0.0
2017-Oct-15 09:00N 39°51' W 075°20'0 0.0
2017-Oct-15 08:30N 39°51' W 075°20'0 0.0
2017-Oct-15 08:00N 39°51' W 075°20'0 0.0
2017-Oct-15 07:31N 39°51' W 075°20'0 0.0
2017-Oct-15 07:00N 39°51' W 075°20'0 0.0
2017-Oct-15 06:30N 39°51' W 075°20'0 0.0
2017-Oct-15 06:00N 39°51' W 075°20'0 0.0
2017-Oct-15 05:30N 39°51' W 075°20'0 0.0
2017-Oct-15 05:00N 39°51' W 075°20'0 0.0
2017-Oct-15 04:30N 39°51' W 075°20'0 0.0
2017-Oct-15 04:00N 39°51' W 075°20'0 0.0
2017-Oct-15 03:30N 39°51' W 075°20'0 0.0
2017-Oct-15 03:00N 39°51' W 075°20'0 0.0
2017-Oct-15 02:30N 39°51' W 075°20'0 0.0
2017-Oct-15 02:00N 39°51' W 075°20'0 0.0
2017-Oct-15 01:30N 39°51' W 075°20'0 0.0
2017-Oct-15 01:00N 39°51' W 075°20'0 0.0
2017-Oct-15 00:30N 39°51' W 075°20'0 0.0
2017-Oct-15 00:00N 39°51' W 075°20'0 0.0
2017-Oct-14 23:30N 39°51' W 075°20'0 0.0
2017-Oct-14 23:00N 39°51' W 075°20'0 0.0
2017-Oct-14 22:30N 39°51' W 075°20'0 0.0
2017-Oct-14 22:00N 39°51' W 075°20'0 0.0
2017-Oct-14 21:30N 39°51' W 075°20'0 0.0
2017-Oct-14 21:00N 39°51' W 075°20'0 0.0
2017-Oct-14 20:30N 39°51' W 075°20'0 0.0
2017-Oct-14 20:00N 39°51' W 075°20'0 0.0
2017-Oct-14 19:30N 39°51' W 075°20'0 0.0
2017-Oct-14 19:00N 39°51' W 075°20'0 0.0
2017-Oct-14 18:30N 39°51' W 075°20'0 0.0
2017-Oct-14 18:00N 39°51' W 075°20'0 0.0
2017-Oct-14 17:30N 39°51' W 075°20'0 0.0
2017-Oct-14 17:00N 39°51' W 075°20'0 0.0
2017-Oct-14 16:30N 39°51' W 075°20'0 0.0
2017-Oct-14 16:00N 39°51' W 075°20'0 0.0
2017-Oct-14 15:30N 39°51' W 075°20'0 0.0
2017-Oct-14 15:00N 39°51' W 075°20'0 0.0
2017-Oct-14 14:30N 39°51' W 075°20'0 0.0
2017-Oct-14 14:00N 39°51' W 075°20'0 0.0
2017-Oct-14 13:30N 39°51' W 075°20'0 0.0
2017-Oct-14 13:00N 39°51' W 075°20'0 0.0
2017-Oct-14 12:31N 39°51' W 075°20'0 0.0
2017-Oct-14 12:00N 39°51' W 075°20'0 0.0
2017-Oct-14 11:31N 39°51' W 075°20'0 0.0
2017-Oct-14 11:00N 39°51' W 075°20'0 0.0
2017-Oct-14 10:30N 39°51' W 075°20'0 0.0
2017-Oct-14 10:01N 39°51' W 075°20'0 0.0
2017-Oct-14 09:31N 39°51' W 075°20'0 0.0
2017-Oct-14 09:01N 39°51' W 075°20'0 0.0
2017-Oct-14 08:31N 39°51' W 075°20'0 0.0
2017-Oct-14 08:01N 39°51' W 075°20'0 0.0
2017-Oct-14 07:30N 39°51' W 075°20'0 0.0
2017-Oct-14 07:00N 39°51' W 075°20'0 0.0
2017-Oct-14 06:31N 39°51' W 075°20'0 0.0
2017-Oct-14 06:00N 39°51' W 075°20'0 0.0
2017-Oct-14 05:31N 39°51' W 075°20'0 0.0
2017-Oct-14 05:01N 39°51' W 075°20'0 0.0
2017-Oct-14 04:31N 39°51' W 075°20'0 0.0
2017-Oct-14 04:01N 39°51' W 075°20'0 0.0
2017-Oct-14 03:30N 39°51' W 075°20'0 0.0
2017-Oct-14 02:31N 39°51' W 075°20'0 0.0
2017-Oct-14 02:30N 39°51' W 075°20'0 0.0
2017-Oct-14 02:01N 39°51' W 075°20'0 0.0
2017-Oct-14 01:28N 39°51' W 075°20'0 0.0
2017-Oct-14 01:01N 39°51' W 075°20'0 0.0
2017-Oct-14 00:30N 39°51' W 075°20'0 0.0
2017-Oct-14 00:01N 39°51' W 075°20'0 0.0
2017-Oct-13 23:30N 39°51' W 075°20'0 0.0
2017-Oct-13 23:00N 39°51' W 075°20'0 0.0
2017-Oct-13 22:31N 39°51' W 075°20'0 0.0
2017-Oct-13 22:01N 39°51' W 075°20'0 0.0
2017-Oct-13 21:31N 39°51' W 075°20'0 0.0
2017-Oct-13 21:01N 39°51' W 075°20'0 0.0
2017-Oct-13 20:30N 39°51' W 075°20'0 0.0
2017-Oct-13 20:01N 39°51' W 075°20'0 0.0
2017-Oct-13 19:31N 39°51' W 075°20'0 0.0
2017-Oct-13 19:00N 39°51' W 075°20'0 0.0
2017-Oct-13 18:30N 39°51' W 075°20'0 0.0
2017-Oct-13 18:00N 39°51' W 075°20'0 0.0
2017-Oct-13 17:30N 39°51' W 075°20'0 0.0
2017-Oct-13 17:01N 39°51' W 075°20'0 0.0
2017-Oct-13 16:31N 39°51' W 075°20'0 0.0
2017-Oct-13 16:01N 39°51' W 075°20'0 0.0
2017-Oct-13 15:30N 39°51' W 075°20'0 0.0
2017-Oct-13 15:00N 39°51' W 075°20'0 0.0
2017-Oct-13 14:31N 39°51' W 075°20'0 0.0
2017-Oct-13 14:01N 39°51' W 075°20'0 0.0
2017-Oct-13 13:31N 39°51' W 075°20'0 0.0
2017-Oct-13 13:01N 39°51' W 075°20'0 0.0
2017-Oct-13 12:31N 39°51' W 075°20'0 0.0
2017-Oct-13 12:01N 39°51' W 075°20'0 0.0
2017-Oct-13 11:30N 39°51' W 075°20'0 0.0
2017-Oct-13 11:01N 39°51' W 075°20'0 0.0
2017-Oct-13 10:31N 39°51' W 075°20'0 0.0
2017-Oct-13 10:00N 39°51' W 075°20'0 0.0
2017-Oct-13 09:31N 39°51' W 075°20'0 0.0
2017-Oct-13 09:00N 39°51' W 075°20'0 0.0
2017-Oct-13 08:31N 39°51' W 075°20'0 0.0
2017-Oct-13 08:01N 39°51' W 075°20'0 0.0
2017-Oct-13 07:31N 39°51' W 075°20'0 0.0
2017-Oct-13 07:00N 39°51' W 075°20'0 0.0
2017-Oct-13 06:31N 39°51' W 075°20'0 0.0
2017-Oct-13 06:01N 39°51' W 075°20'0 0.0
2017-Oct-13 05:30N 39°51' W 075°20'0 0.0
2017-Oct-13 05:01N 39°51' W 075°20'0 0.0
2017-Oct-13 04:30N 39°51' W 075°20'0 0.0
2017-Oct-13 04:01N 39°51' W 075°20'0 0.0
2017-Oct-13 03:31N 39°51' W 075°20'0 0.0
2017-Oct-13 03:01N 39°51' W 075°20'0 0.0
2017-Oct-13 02:31N 39°51' W 075°20'0 0.0
2017-Oct-13 02:00N 39°51' W 075°20'0 0.0
2017-Oct-13 01:31N 39°51' W 075°20'0 0.0
2017-Oct-13 01:01N 39°51' W 075°20'0 0.0
2017-Oct-13 00:30N 39°51' W 075°20'0 0.0
2017-Oct-13 00:00N 39°51' W 075°20'0 0.0
2017-Oct-12 23:30N 39°51' W 075°20'0 0.0
2017-Oct-12 23:01N 39°51' W 075°20'0 0.0
2017-Oct-12 22:30N 39°51' W 075°20'0 0.0
2017-Oct-12 22:01N 39°51' W 075°20'0 0.0
2017-Oct-12 21:31N 39°51' W 075°20'0 0.0
2017-Oct-12 21:01N 39°51' W 075°20'0 0.0
2017-Oct-12 20:30N 39°51' W 075°20'0 0.0
2017-Oct-12 20:01N 39°51' W 075°20'0 0.0
2017-Oct-12 19:31N 39°51' W 075°20'0 0.0
2017-Oct-12 19:00N 39°51' W 075°20'0 0.0
2017-Oct-12 18:31N 39°51' W 075°20'0 0.0
2017-Oct-12 18:01N 39°51' W 075°20'0 0.0
2017-Oct-12 17:30N 39°51' W 075°20'0 0.0
2017-Oct-12 17:00N 39°51' W 075°20'0 0.0
2017-Oct-12 16:30N 39°51' W 075°20'0 0.0
2017-Oct-12 16:01N 39°51' W 075°20'0 0.0
2017-Oct-12 15:31N 39°51' W 075°20'0 0.0
2017-Oct-12 15:00N 39°51' W 075°20'0 0.0
2017-Oct-12 14:31N 39°51' W 075°20'0 0.0
2017-Oct-12 14:00N 39°51' W 075°20'0 0.0
2017-Oct-12 13:30N 39°51' W 075°20'0 0.0
2017-Oct-12 13:01N 39°51' W 075°20'0 0.0
2017-Oct-12 12:31N 39°51' W 075°20'0 0.0
2017-Oct-12 12:00N 39°51' W 075°20'0 0.0
2017-Oct-12 11:31N 39°51' W 075°20'0 0.0
2017-Oct-12 11:01N 39°51' W 075°20'0 0.0
2017-Oct-12 10:30N 39°51' W 075°20'0 0.0
2017-Oct-12 10:01N 39°51' W 075°20'0 0.0
2017-Oct-12 09:30N 39°51' W 075°20'0 0.0
2017-Oct-12 09:01N 39°51' W 075°20'0 0.0
2017-Oct-12 08:31N 39°51' W 075°20'0 0.0
2017-Oct-12 08:01N 39°51' W 075°20'0 0.0
2017-Oct-12 07:30N 39°51' W 075°20'0 0.0
2017-Oct-12 07:00N 39°51' W 075°20'0 0.0
2017-Oct-12 06:31N 39°51' W 075°20'0 0.0
2017-Oct-12 06:01N 39°51' W 075°20'0 0.0
2017-Oct-12 05:30N 39°51' W 075°20'0 0.0
2017-Oct-12 05:00N 39°51' W 075°20'0 0.0
2017-Oct-12 04:30N 39°51' W 075°20'0 0.0
2017-Oct-12 04:01N 39°51' W 075°20'0 0.0
2017-Oct-12 03:31N 39°51' W 075°20'0 0.0
2017-Oct-12 03:00N 39°51' W 075°20'0 0.0
2017-Oct-12 02:31N 39°51' W 075°20'0 0.0
2017-Oct-12 02:00N 39°51' W 075°20'0 0.0
2017-Oct-12 01:30N 39°51' W 075°20'0 0.0
2017-Oct-12 01:00N 39°51' W 075°20'0 0.0
2017-Oct-12 00:30N 39°51' W 075°20'0 0.0
2017-Oct-12 00:01N 39°51' W 075°20'0 0.0
2017-Oct-11 23:31N 39°51' W 075°20'0 0.0
2017-Oct-11 23:00N 39°51' W 075°20'0 0.0
2017-Oct-11 22:30N 39°51' W 075°20'0 0.0
2017-Oct-11 22:00N 39°51' W 075°20'0 0.0
2017-Oct-11 21:30N 39°51' W 075°20'0 0.0
2017-Oct-11 21:00N 39°51' W 075°20'0 0.0
2017-Oct-11 20:31N 39°51' W 075°20'0 0.0
2017-Oct-11 20:01N 39°51' W 075°20'0 0.0
2017-Oct-11 19:30N 39°51' W 075°20'0 0.0
2017-Oct-11 19:01N 39°51' W 075°20'2 3.5
2017-Oct-11 18:31N 39°50' W 075°22'0 0.7
2017-Oct-11 18:01N 39°50' W 075°22'0 0.0
2017-Oct-11 17:30N 39°50' W 075°22'0 0.0
2017-Oct-11 17:00N 39°50' W 075°22'  

Dump ship's entire track history